there are no active watches, warnings or advisories



my webcam  My webcam


visit our other weather sites:

Template documentation
and downloads

And another site




nearby metar reports

   
KAHN - Athens Airport, GA
distance from station: e 35 mi
updated: May 30 2020 4:51 pm
few clouds  
few clouds  
   wind: wnw 12.7 mph<br />Gust to 12.7 mph
wind: wnw 12.7 mph
Gust to 12.7 mph
temperature: 87.8°F
dew point: 59°F
humidity: 38%
barometer: 29.97 inHg
clouds: Few Clouds
visibility: 10 mi
cloud details: few clouds 7000 ft
KAHN 302051Z 29011G16KT 10SM FEW070 31/15 A2997 RMK AO2 SLP142 T03110150 58014 $
KBGE - Brainbridge Airport, GA
distance from station: ssw 180 mi
updated: May 30 2020 5:15 pm
partly cloudy  
partly cloudy  
   wind: nw 5.8 mph
wind: nw 5.8 mph
temperature: 89.6°F
heat index: 93.2°F
dew point: 68°F
humidity: 49%
barometer: 29.98 inHg
clouds: Partly Cloudy
visibility: 10 mi
cloud details: partly cloudy 6000 ft
KBGE 302115Z AUTO 32005KT 10SM SCT060 32/20 A2998 RMK AO2 T03170202
KSSI - Brunswick Airport, GA
distance from station: se 209 mi
updated: May 30 2020 4:53 pm
few clouds  
few clouds  
   wind: sse 9.2 mph
wind: sse 9.2 mph
temperature: 84.2°F
heat index: 91.4°F
dew point: 75.2°F
humidity: 74%
barometer: 29.96 inHg
clouds: Few Clouds
visibility: 10 mi
cloud details: few clouds 5500 ft
KSSI 302053Z AUTO 15008KT 10SM FEW055 29/24 A2996 RMK AO2 LTG DSNT N SLP146 T02940244 56014
KCSG - Columbus Airport, GA
distance from station: sw 92 mi
updated: May 30 2020 4:51 pm
partly cloudy  
partly cloudy  
   wind: nnw 13.8 mph<br />Gust to 13.8 mph
wind: nnw 13.8 mph
Gust to 13.8 mph
temperature: 89.6°F
heat index: 89.6°F
dew point: 62.6°F
humidity: 41%
barometer: 29.98 inHg
clouds: Partly Cloudy
visibility: 10 mi
cloud details: few clouds 5500 ft,
partly cloudy 10000 ft
KCSG 302051Z 34012G17KT 300V360 10SM FEW055 SCT100 32/17 A2998 RMK AO2 SLP145 T03220172 56012
KGVL - Gainsville Airport, GA
distance from station: n 30 mi
updated: May 30 2020 4:53 pm
partly cloudy  
partly cloudy  
   wind: west 13.8 mph<br />Gust to 13.8 mph
wind: west 13.8 mph
Gust to 13.8 mph
temperature: 82.4°F
heat index: 82.4°F
dew point: 57.2°F
humidity: 42%
barometer: 30.02 inHg
clouds: Partly Cloudy
visibility: 10 mi
cloud details: few clouds 6000 ft,
partly cloudy 8500 ft
KGVL 302053Z AUTO 27012G19KT 10SM FEW060 SCT085 28/14 A3002 RMK AO2 SLP151 T02830144 56010
KRMG - Rome Airport, GA
distance from station: nw 60 mi
updated: May 30 2020 4:53 pm
mostly cloudy  
mostly cloudy  
   wind: nnw 9.2 mph
wind: nnw 9.2 mph
temperature: 87.8°F
dew point: 57.2°F
humidity: 35%
barometer: 30.01 inHg
clouds: Mostly Cloudy
visibility: 10 mi
cloud details: mostly cloudy 6000 ft
KRMG 302053Z AUTO 34008KT 310V020 10SM BKN060 31/14 A3001 RMK AO2 SLP152 T03060144 56011
KSAV - Savannah Airport, GA
distance from station: se 183 mi
updated: May 30 2020 4:53 pm
mostly cloudy  
mostly cloudy  
   wind: wnw 8.1 mph
wind: wnw 8.1 mph
temperature: 87.8°F
heat index: 93.2°F
dew point: 71.6°F
humidity: 59%
barometer: 29.94 inHg
clouds: Mostly Cloudy
visibility: 10 mi
cloud details: few clouds 4200 ft,
partly cloudy 4900 ft,
mostly cloudy 6000 ft,
mostly cloudy 20000 ft
KSAV 302053Z 29007KT 10SM FEW042 SCT049 BKN060 BKN200 31/22 A2994 RMK AO2 SLP139 T03110217 56018
KVLD - Valdosta Airport, GA
distance from station: s 185 mi
updated: May 30 2020 4:53 pm
clear  
clear  
   wind: varies 3.5 mph
wind: varies 3.5 mph
temperature: 89.6°F
heat index: 95°F
dew point: 69.8°F
humidity: 52%
barometer: 29.97 inHg
clouds: Clear
visibility: 10 mi
cloud details: clear ft
KVLD 302053Z VRB03KT 10SM CLR 32/21 A2997 RMK AO2 SLP153 T03220211 56018 $
KWRB - Warner Robins Airport, GA
distance from station: sse 78 mi
updated: May 30 2020 4:56 pm
partly cloudy  
partly cloudy  
   wind: nnw 8.1 mph
wind: nnw 8.1 mph
temperature: 87.8°F
heat index: 89.6°F
dew point: 66.2°F
humidity: 49%
barometer: 29.95 inHg
clouds: Partly Cloudy
visibility: 10 mi
cloud details: partly cloudy 6000 ft,
partly cloudy 8000 ft
KWRB 302056Z 34007KT 10SM SCT060 SCT080 31/19 A2995 RMK AO2A SLP142 T03130189 57014 $

script developed by  Saratoga-weather.org adapted for the template by  Weerstation Leuven

equipment we use:

weather-station
Davis VP2 weatherstation

weather-program
WeatherLink

weather-server
My Computer

provider
My provider

Davis VP2 weatherstation

WeatherLink

My Computer

My provider